Aviation Digital Data Service (ADDS)

Output produced by METARs form (1305 UTC 15 November 2018)
found at http://www.aviationweather.gov/metar/data/
 
EKYT 151250Z AUTO 18007KT 9999NDV BKN055/// BKN230/// 12/09 Q1027
TAF EKYT 151124Z 1512/1612 19010KT 9999 SCT050 
     TEMPO 1517/1604 4000 BR 
     TEMPO 1604/1612 4000 BR BKN006
       
EKAH 151250Z AUTO 17005KT 140V220 9999NDV SCT150/// 11/09 Q1029
TAF EKAH 151100Z 1512/1612 16008KT 6000 BKN020 
     TEMPO 1520/1609 4000 BR BKN008
       
EKBI 151250Z AUTO 15006KT 9999NDV NCD 10/07 Q1027
TAF EKBI 151100Z 1512/1612 14005KT 6000 BKN020 
     TEMPO 1516/1524 4000 BR 
     TEMPO 1600/1612 2000 BR
       
EKRN 151250Z AUTO 18007KT 7000NDV OVC003/// 09/08 Q1032
TAF EKRN 151121Z 1512/1521 17008KT 6000 BKN006 
     TEMPO 1512/1515 0800 FG BKN002 
     TEMPO 1515/1521 2000 BR BKN015
       
EKEB 151250Z AUTO 14008KT 9999NDV NCD 10/08 Q1027
TAF EKEB 151108Z 1512/1521 15008KT 7000 SCT040 
     TEMPO 1513/1521 4000 BR BKN012
       
EKKA 151250Z AUTO 17006KT 100V180 9999NDV NCD 12/08 Q1027 NOSIG
TAF EKKA 151123Z 1512/1612 19008KT 9999 SCT080 
     TEMPO 1516/1610 4000 BR 
     PROB40 1605/1610 BKN006
       
EKCH 151250Z 17008KT CAVOK 11/09 Q1030 NOSIG
TAF EKCH 151051Z 1512/1612 16010KT 9999 SCT015 
     TEMPO 1515/1606 BKN008
       
EKVD 151250Z 15007KT CAVOK 11/07 Q1028
TAF EKVD 151124Z 1512/1517 15008KT 9999 SCT030
       
EKOD 151250Z 18010KT CAVOK 12/09 Q1029
TAF EKOD 151124Z 1512/1517 14008KT 9999 SCT030
       
EKRK 151250Z AUTO 17008KT 9999NDV NCD 11/08 Q1030
TAF EKRK 151121Z 1512/1521 16008KT 8000 SCT015 
     TEMPO 1515/1521 4000 BR BKN008
       
EKSN 151150Z 18009KT 9999 FEW016 BKN055 11/10 Q1027
TAF EKSN 150855Z 1509/1515 20010KT 8000 SCT030 
     TEMPO 1509/1515 4000 BR BKN008
       
EKSP 151250Z 14009KT CAVOK 10/07 Q1027 NOSIG RMK SCT220
TAF EKSP 151122Z 1512/1612 14008KT 9999 BKN140 
     TEMPO 1516/1609 4000 BR
       
EKSB 151250Z 13005KT CAVOK 11/08 Q1028
TAF EKSB 151124Z 1512/1521 14005KT 9999 SCT030
       
EKVJ 151250Z 15010KT CAVOK 11/09 Q1028
TAF EKVJ 151124Z 1512/1516 15008KT 8000 SCT030 
     TEMPO 1512/1516 4000 BR BKN008